Zürich Airport LSZH

Flugplatz Daten

Name: Zürich Airport

Ident: LSZH

Lat: 47,46469879

Long: 8,54916954

Platzhöhe: 1416 ft

IataCode: ZRH

City: Zurich

Metar

2021/08/02 09:20
LSZH 020920Z VRB04KT 9999 SCT018 18/13 Q1017 NOSIG

Taf

2021/08/02 09:33
TAF LSZH 020825Z 0209/0315 23004KT 9999 FEW011 TX21/0215Z TN11/0304Z TX20/0314Z PROB30
TEMPO 0212/0215 SHRA SCT040TCU
TEMPO 0214/0219 29008KT
BECMG 0219/0223 CAVOK
BECMG 0300/0303 6000 MIFG NSC PROB40
TEMPO 0302/0307 4000 BR PROB30 0303/0306 1500 BCFG
BECMG 0306/0308 CAVOK
BECMG 0308/0310 SCT050
TEMPO 0310/0315 SHRA SCT045TCU PROB30
TEMPO 0310/0315 TSRA SCT040CB
Gewünschte Webcam nicht vorhanden? Dann fügen Sie eine hinzu. Sie wird dann so schnell wie möglich freigeschaltet
Url: Title: